Afton, California
Current Conditions -  °F | °C
As of 5:27 PM on Friday 28 Nov 2014 (Local Time) from KOVE Reporting Station
Moderate Rain Moderate Rain  
Wind Chill: 53°   Ceiling: 7500
Heat Index: 53°   Visibility: 1.7mi
Dew Point: 51°   Wind: 5mph
Humidity: 93%   Direction: 360°N
Pressure: 29.87"   Gusts: NA
Location:  39.4608°N, 121.937°W
Report Text: KOVE 290127Z AUTO 36004KT 1 3/4SM RA BR SCT055 OVC075 12/11 A2987 RMK AO2 P0003 T01170106
Loading
Personal Weather Stations






























Interactive Weather Map New forecast layout! Learn more

10-Day Weather Forecast

Advertisements
Track Severe Weather on mobile